Time;durP1;ratioP1;P1;durP2;ratioP2;P2;SDS_P1;SDS_P2;PMS_P1;PMS_P2;Temp;Humidity;BMP_temperature;BMP_pressure;BME280_temperature;BME280_humidity;BME280_pressure;Samples;Min_cycle;Max_cycle;Signal;HPM_P1;HPM_P2
2024/04/22 00:09:55;;;;;;;2.20;0.40;;;;;;;;;;22641154;26;20032;-50
2024/04/22 00:19:58;;;;;;;1.45;0.30;;;;;;;;;;22659913;26;20009;-50
2024/04/22 00:29:59;;;;;;;2.33;0.30;;;;;;;;;;22642805;26;20387;-51
2024/04/22 00:40:01;;;;;;;2.95;0.30;;;;;;;;;;22633864;26;20017;-51
2024/04/22 00:50:03;;;;;;;1.42;0.47;;;;;;;;;;22665704;26;20013;-51
2024/04/22 01:00:05;;;;;;;3.67;0.30;;;;;;;;;;22645168;26;20002;-51
2024/04/22 01:10:07;;;;;;;2.47;0.28;;;;;;;;;;22620109;26;20013;-50
2024/04/22 01:20:09;;;;;;;3.58;0.20;;;;;;;;;;22623352;26;20082;-51
2024/04/22 01:30:11;;;;;;;2.92;0.63;;;;;;;;;;22636245;26;20008;-52
2024/04/22 01:40:19;;;;;;;2.00;0.30;;;;;;;;;;22643483;26;20006;-50
2024/04/22 01:50:21;;;;;;;3.90;1.02;;;;;;;;;;22664356;26;20434;-49
2024/04/22 02:00:23;;;;;;;4.68;0.40;;;;;;;;;;22638839;26;20411;-50
2024/04/22 02:10:24;;;;;;;1.20;0.43;;;;;;;;;;22666905;26;20009;-50
2024/04/22 02:53:29;;;;;;;3.15;0.30;;;;;;;;;;22664213;26;20010;-50
2024/04/22 03:03:31;;;;;;;2.75;0.40;;;;;;;;;;22644155;26;20056;-51
2024/04/22 03:13:32;;;;;;;3.17;0.32;;;;;;;;;;22627038;26;20001;-50
2024/04/22 03:23:34;;;;;;;1.55;0.35;;;;;;;;;;22614064;26;20014;-50
2024/04/22 03:33:35;;;;;;;1.00;0.47;;;;;;;;;;22642382;26;20078;-49
2024/04/22 03:43:37;;;;;;;2.70;0.50;;;;;;;;;;22632942;26;20017;-49
2024/04/22 03:53:39;;;;;;;2.60;0.40;;;;;;;;;;22657768;26;20010;-50
2024/04/22 04:03:40;;;;;;;3.03;0.52;;;;;;;;;;22657117;26;20009;-50
2024/04/22 04:13:43;;;;;;;3.10;0.50;;;;;;;;;;22673310;26;19998;-50
2024/04/22 04:23:45;;;;;;;4.28;0.70;;;;;;;;;;22641905;26;20011;-52
2024/04/22 04:33:46;;;;;;;1.50;0.38;;;;;;;;;;22671466;26;20036;-49
2024/04/22 04:43:48;;;;;;;4.63;0.60;;;;;;;;;;22612438;26;20002;-51
2024/04/22 04:53:50;;;;;;;3.55;0.57;;;;;;;;;;22659123;26;19994;-50
2024/04/22 05:03:52;;;;;;;3.17;0.68;;;;;;;;;;22647660;26;20421;-49
2024/04/22 05:13:55;;;;;;;2.97;0.65;;;;;;;;;;22641970;26;20064;-51
2024/04/22 05:24:07;;;;;;;5.43;0.80;;;;;;;;;;22595402;26;20087;-51
2024/04/22 05:44:28;;;;;;;2.63;0.60;;;;;;;;;;22643433;26;20013;-49
2024/04/22 05:54:30;;;;;;;1.92;0.70;;;;;;;;;;22649190;26;20013;-51
2024/04/22 06:04:32;;;;;;;4.30;1.13;;;;;;;;;;22671371;26;20025;-52
2024/04/22 06:14:35;;;;;;;4.88;0.70;;;;;;;;;;22652939;26;20013;-49
2024/04/22 06:24:37;;;;;;;3.43;0.73;;;;;;;;;;22621835;26;20062;-50
2024/04/22 06:34:38;;;;;;;3.65;0.80;;;;;;;;;;22638281;26;20086;-49
2024/04/22 06:44:40;;;;;;;4.35;1.45;;;;;;;;;;22666460;26;20086;-50
2024/04/22 06:54:42;;;;;;;3.63;0.82;;;;;;;;;;22631880;26;20066;-51
2024/04/22 07:04:43;;;;;;;6.50;1.05;;;;;;;;;;22661025;26;20013;-50
2024/04/22 07:14:46;;;;;;;5.80;0.80;;;;;;;;;;22613972;26;20140;-51
2024/04/22 07:24:47;;;;;;;3.53;0.88;;;;;;;;;;22671261;26;19998;-49
2024/04/22 07:34:49;;;;;;;2.95;0.65;;;;;;;;;;22713077;26;20021;-50
2024/04/22 07:44:51;;;;;;;8.73;1.20;;;;;;;;;;22712095;26;20046;-51
2024/04/22 07:54:54;;;;;;;4.65;0.77;;;;;;;;;;22593876;26;20003;-52
2024/04/22 08:04:56;;;;;;;3.60;0.70;;;;;;;;;;22670828;26;20078;-52
2024/04/22 08:14:59;;;;;;;2.17;0.77;;;;;;;;;;22706074;26;20006;-51
2024/04/22 08:25:03;;;;;;;3.45;0.80;;;;;;;;;;22670538;26;20332;-50
2024/04/22 08:35:06;;;;;;;4.53;0.80;;;;;;;;;;22695227;26;20014;-50
2024/04/22 08:45:07;;;;;;;2.42;0.50;;;;;;;;;;22683383;26;20014;-51
2024/04/22 08:55:11;;;;;;;2.65;0.82;;;;;;;;;;22674803;26;20010;-50
2024/04/22 09:05:12;;;;;;;1.60;0.63;;;;;;;;;;22705590;26;20082;-50
2024/04/22 09:15:16;;;;;;;6.38;0.70;;;;;;;;;;22703272;26;20006;-50
2024/04/22 09:25:18;;;;;;;5.00;0.65;;;;;;;;;;22694167;26;20393;-51
2024/04/22 09:35:21;;;;;;;1.52;0.30;;;;;;;;;;22700446;26;20006;-50
2024/04/22 09:45:23;;;;;;;6.30;0.68;;;;;;;;;;22660751;26;20083;-55
2024/04/22 09:55:26;;;;;;;3.65;0.50;;;;;;;;;;22667582;26;20017;-53
2024/04/22 10:05:27;;;;;;;2.75;0.73;;;;;;;;;;22671715;26;20038;-51
2024/04/22 10:15:30;;;;;;;1.27;0.50;;;;;;;;;;22692903;26;20006;-53
2024/04/22 10:25:32;;;;;;;5.13;0.60;;;;;;;;;;22663621;26;20038;-52
2024/04/22 10:35:34;;;;;;;6.22;0.60;;;;;;;;;;22646386;26;20006;-52
2024/04/22 10:45:36;;;;;;;3.80;0.80;;;;;;;;;;22613215;26;20002;-52
2024/04/22 10:55:37;;;;;;;10.48;1.10;;;;;;;;;;22712104;26;20025;-51
2024/04/22 11:05:41;;;;;;;1.92;0.30;;;;;;;;;;22710766;26;20498;-52
2024/04/22 11:15:43;;;;;;;4.53;0.63;;;;;;;;;;22711056;26;20009;-53
2024/04/22 11:25:46;;;;;;;4.47;1.23;;;;;;;;;;22699092;26;20017;-53
2024/04/22 11:35:49;;;;;;;3.35;0.60;;;;;;;;;;22597991;26;20011;-54
2024/04/22 11:45:52;;;;;;;;;;;;;;;;;;22621511;26;20009;-53
2024/04/22 11:55:55;;;;;;;6.07;1.02;;;;;;;;;;22708293;26;19932;-52
2024/04/22 12:06:15;;;;;;;1.40;0.30;;;;;;;;;;22579647;26;20043;-53
2024/04/22 12:16:17;;;;;;;3.53;0.50;;;;;;;;;;22555785;26;20148;-53
2024/04/22 12:26:18;;;;;;;1.75;0.50;;;;;;;;;;22676851;26;20014;-53
2024/04/22 12:36:21;;;;;;;2.13;0.68;;;;;;;;;;22567446;26;20006;-54
2024/04/22 12:46:22;;;;;;;2.38;0.50;;;;;;;;;;22656554;26;20042;-53
2024/04/22 12:56:24;;;;;;;3.67;0.60;;;;;;;;;;22697806;26;20402;-52
2024/04/22 13:06:26;;;;;;;3.90;0.50;;;;;;;;;;22698602;26;20017;-54
2024/04/22 13:16:29;;;;;;;2.40;0.40;;;;;;;;;;22697648;26;20382;-54
2024/04/22 13:26:30;;;;;;;3.13;0.50;;;;;;;;;;22655948;26;19998;-53
2024/04/22 13:36:33;;;;;;;1.83;0.32;;;;;;;;;;22633688;26;20096;-52
2024/04/22 13:46:34;;;;;;;6.60;0.80;;;;;;;;;;22701820;26;20344;-53
2024/04/22 13:56:36;;;;;;;4.90;0.70;;;;;;;;;;22701692;26;20017;-55
2024/04/22 14:06:39;;;;;;;5.25;0.45;;;;;;;;;;22595605;26;20485;-55
2024/04/22 14:16:40;;;;;;;5.20;0.60;;;;;;;;;;22701867;26;20006;-54
2024/04/22 14:26:42;;;;;;;3.03;0.60;;;;;;;;;;22714109;26;20038;-53
2024/04/22 14:36:43;;;;;;;0.85;0.30;;;;;;;;;;22668123;26;20394;-53
2024/04/22 14:46:45;;;;;;;2.17;0.60;;;;;;;;;;22708692;26;20341;-54
2024/04/22 14:56:50;;;;;;;2.10;0.60;;;;;;;;;;22710808;26;19998;-56
2024/04/22 15:06:53;;;;;;;6.65;0.93;;;;;;;;;;22662542;26;20006;-53
2024/04/22 15:16:54;;;;;;;4.55;0.57;;;;;;;;;;22705357;26;20012;-53
2024/04/22 15:27:14;;;;;;;4.22;0.88;;;;;;;;;;22702083;26;20010;-54
2024/04/22 15:48:20;;;;;;;4.60;0.43;;;;;;;;;;22683763;26;20006;-54
2024/04/22 15:58:22;;;;;;;1.38;0.38;;;;;;;;;;22709841;26;21014;-52
2024/04/22 16:08:23;;;;;;;4.97;1.05;;;;;;;;;;22707593;26;20021;-51
2024/04/22 16:18:25;;;;;;;2.78;0.40;;;;;;;;;;22707382;26;20041;-53
2024/04/22 16:28:27;;;;;;;3.15;0.40;;;;;;;;;;22676135;26;20115;-56
2024/04/22 16:38:28;;;;;;;3.92;0.43;;;;;;;;;;22707117;26;20003;-53
2024/04/22 16:48:30;;;;;;;3.38;0.40;;;;;;;;;;22654475;26;20021;-55
2024/04/22 16:58:31;;;;;;;4.95;0.75;;;;;;;;;;22669657;26;20002;-56
2024/04/22 17:08:34;;;;;;;3.22;0.60;;;;;;;;;;22648052;26;20311;-53
2024/04/22 17:18:37;;;;;;;2.70;0.65;;;;;;;;;;22665414;26;20391;-55
2024/04/22 17:28:39;;;;;;;1.83;0.50;;;;;;;;;;22665869;26;19998;-56
2024/04/22 17:38:40;;;;;;;7.03;0.40;;;;;;;;;;22642528;26;19998;-53
2024/04/22 17:48:42;;;;;;;2.13;0.80;;;;;;;;;;22663769;26;19998;-52
2024/04/22 17:58:45;;;;;;;5.05;0.45;;;;;;;;;;22655382;26;20394;-52
2024/04/22 18:08:49;;;;;;;2.83;0.38;;;;;;;;;;22678947;26;20013;-52
2024/04/22 18:18:50;;;;;;;4.72;0.55;;;;;;;;;;22699165;26;20038;-54
2024/04/22 18:28:52;;;;;;;3.45;0.30;;;;;;;;;;22641499;26;19995;-51
2024/04/22 18:38:53;;;;;;;5.40;0.40;;;;;;;;;;22675722;26;20021;-53
2024/04/22 18:48:55;;;;;;;3.13;0.52;;;;;;;;;;22688853;26;20002;-54
2024/04/22 18:58:57;;;;;;;1.52;0.57;;;;;;;;;;22695537;26;20013;-52
2024/04/22 19:09:02;;;;;;;5.13;0.40;;;;;;;;;;22589273;26;20154;-53
2024/04/22 19:19:06;;;;;;;3.55;0.40;;;;;;;;;;22633594;26;20006;-53
2024/04/22 19:29:07;;;;;;;2.50;0.32;;;;;;;;;;22677170;26;20329;-52
2024/04/22 19:39:11;;;;;;;2.35;0.57;;;;;;;;;;22633109;26;20641;-53
2024/04/22 19:49:12;;;;;;;6.37;0.77;;;;;;;;;;22675348;26;20436;-51
2024/04/22 19:59:14;;;;;;;5.97;0.80;;;;;;;;;;22664911;26;20002;-50
2024/04/22 20:09:17;;;;;;;4.22;0.60;;;;;;;;;;22695454;26;20017;-44
2024/04/22 20:19:21;;;;;;;1.55;0.70;;;;;;;;;;22694876;26;20002;-44
2024/04/22 20:29:22;;;;;;;1.93;0.67;;;;;;;;;;22693279;26;20412;-44
2024/04/22 20:39:24;;;;;;;2.53;0.60;;;;;;;;;;22629662;26;19998;-43
2024/04/22 20:49:26;;;;;;;2.67;0.60;;;;;;;;;;22686141;26;20001;-42
2024/04/22 20:59:27;;;;;;;5.70;1.13;;;;;;;;;;22700383;26;20028;-43
2024/04/22 21:09:30;;;;;;;2.15;0.85;;;;;;;;;;22643234;26;20122;-42
2024/04/22 21:19:32;;;;;;;4.05;0.40;;;;;;;;;;22697764;26;20017;-42
2024/04/22 21:29:33;;;;;;;1.20;0.40;;;;;;;;;;22696975;26;20013;-42
2024/04/22 21:39:35;;;;;;;1.48;0.40;;;;;;;;;;22696609;26;20002;-41
2024/04/22 21:49:37;;;;;;;1.92;0.60;;;;;;;;;;22663981;26;20294;-44
2024/04/22 21:59:57;;;;;;;2.03;0.60;;;;;;;;;;22685942;26;20013;-43
2024/04/22 22:09:59;;;;;;;2.58;0.50;;;;;;;;;;22650568;26;20006;-44
2024/04/22 22:20:10;;;;;;;1.65;0.60;;;;;;;;;;22694151;26;20002;-43
2024/04/22 22:30:15;;;;;;;1.33;0.20;;;;;;;;;;22698251;26;20006;-45
2024/04/22 22:40:17;;;;;;;1.20;0.40;;;;;;;;;;22699937;26;20749;-44
2024/04/22 22:50:18;;;;;;;1.92;0.60;;;;;;;;;;22637955;26;20524;-45
2024/04/22 23:00:20;;;;;;;2.65;0.38;;;;;;;;;;22622452;26;20002;-45
2024/04/22 23:10:21;;;;;;;2.38;0.50;;;;;;;;;;22658165;26;20022;-43
2024/04/22 23:20:23;;;;;;;2.45;0.40;;;;;;;;;;22704763;26;20006;-44
2024/04/22 23:30:24;;;;;;;2.63;0.40;;;;;;;;;;22647812;26;20078;-44
2024/04/22 23:40:26;;;;;;;1.52;0.43;;;;;;;;;;22627456;26;20059;-43
2024/04/22 23:50:27;;;;;;;1.10;0.30;;;;;;;;;;22571199;26;20002;-44
